Time;durP1;ratioP1;P1;durP2;ratioP2;P2;SDS_P1;SDS_P2;PMS_P1;PMS_P2;Temp;Humidity;BMP_temperature;BMP_pressure;BME280_temperature;BME280_humidity;BME280_pressure;Samples;Min_cycle;Max_cycle;Signal;HPM_P1;HPM_P2
2022/11/02 00:02:24;;;;;;;9.63;2.93;;;8.40;99.90;;;;;;5153442;27;20491;-74
2022/11/02 00:04:51;;;;;;;14.10;3.67;;;8.40;99.90;;;;;;5130292;27;20822;-74
2022/11/02 00:07:18;;;;;;;9.23;3.40;;;8.40;99.90;;;;;;5128563;27;20481;-74
2022/11/02 00:09:44;;;;;;;18.10;3.30;;;8.40;99.90;;;;;;5120185;27;20452;-74
2022/11/02 00:12:11;;;;;;;15.77;3.40;;;8.50;99.90;;;;;;5135011;27;20903;-74
2022/11/02 00:14:38;;;;;;;6.00;3.10;;;8.50;99.90;;;;;;5130605;27;20853;-74
2022/11/02 00:17:04;;;;;;;11.20;3.93;;;8.50;99.90;;;;;;5114584;27;20478;-74
2022/11/02 00:19:34;;;;;;;14.07;3.00;;;8.50;99.90;;;;;;5125981;27;20456;-74
2022/11/02 00:22:01;;;;;;;7.60;2.80;;;8.50;99.90;;;;;;5141721;27;20445;-74
2022/11/02 00:24:28;;;;;;;13.67;3.87;;;8.50;99.90;;;;;;5117349;27;20454;-74
2022/11/02 00:26:55;;;;;;;13.00;3.00;;;8.50;99.90;;;;;;5124512;27;20458;-74
2022/11/02 00:29:23;;;;;;;11.40;3.50;;;8.60;99.90;;;;;;5152903;27;20454;-74
2022/11/02 00:31:49;;;;;;;7.60;3.40;;;8.60;99.90;;;;;;5111575;28;20462;-73
2022/11/02 00:34:16;;;;;;;12.47;3.47;;;8.60;99.90;;;;;;5112101;28;20454;-74
2022/11/02 00:36:44;;;;;;;10.23;3.13;;;8.70;99.90;;;;;;5117150;28;20488;-74
2022/11/02 00:39:11;;;;;;;16.50;3.80;;;8.80;99.90;;;;;;5132442;28;20445;-74
2022/11/02 00:41:38;;;;;;;14.13;3.10;;;8.80;99.90;;;;;;5150938;27;20826;-74
2022/11/02 00:44:04;;;;;;;8.27;3.07;;;8.80;99.90;;;;;;5148982;27;20547;-74
2022/11/02 00:46:31;;;;;;;10.83;3.43;;;8.90;99.90;;;;;;5111861;28;20961;-74
2022/11/02 00:48:58;;;;;;;9.77;3.10;;;9.00;99.90;;;;;;5111687;28;20921;-74
2022/11/02 00:51:25;;;;;;;11.13;3.73;;;9.10;99.90;;;;;;5131507;27;20465;-75
2022/11/02 00:53:53;;;;;;;12.40;3.77;;;9.20;99.90;;;;;;5132322;28;20461;-74
2022/11/02 00:56:19;;;;;;;10.37;2.90;;;9.30;99.90;;;;;;5129873;27;20491;-74
2022/11/02 00:58:46;;;;;;;9.90;3.37;;;9.40;99.90;;;;;;5111840;28;20457;-74
2022/11/02 01:01:13;;;;;;;12.70;3.90;;;9.50;99.90;;;;;;5115773;27;20454;-74
2022/11/02 01:03:40;;;;;;;12.80;3.40;;;9.50;99.90;;;;;;5129798;27;20470;-75
2022/11/02 01:06:11;;;;;;;11.40;3.60;;;9.50;99.90;;;;;;5114415;28;20457;-74
2022/11/02 01:08:37;;;;;;;11.67;4.20;;;9.50;99.90;;;;;;5111659;28;20964;-74
2022/11/02 01:11:16;;;;;;;17.00;4.57;;;9.40;99.90;;;;;;5135004;27;20464;-74
2022/11/02 01:13:43;;;;;;;17.50;3.87;;;9.50;99.90;;;;;;5115422;27;20850;-74
2022/11/02 01:16:11;;;;;;;11.47;4.00;;;9.40;99.90;;;;;;5113018;28;20474;-74
2022/11/02 01:18:38;;;;;;;11.17;3.77;;;9.40;99.90;;;;;;5116356;28;20495;-74
2022/11/02 01:21:05;;;;;;;13.13;4.57;;;9.30;99.90;;;;;;5147503;27;20526;-74
2022/11/02 01:23:33;;;;;;;8.33;3.90;;;9.30;99.90;;;;;;5133212;27;20469;-75
2022/11/02 01:26:02;;;;;;;15.70;3.83;;;9.30;99.90;;;;;;5114711;28;20443;-74
2022/11/02 01:28:31;;;;;;;14.27;3.63;;;9.20;99.90;;;;;;5130304;28;20460;-74
2022/11/02 01:30:58;;;;;;;17.63;3.90;;;9.30;99.90;;;;;;5145789;27;20452;-74
2022/11/02 01:33:24;;;;;;;10.20;3.90;;;9.20;99.90;;;;;;5137437;27;20500;-74
2022/11/02 01:35:51;;;;;;;14.73;4.53;;;9.20;99.90;;;;;;5116121;28;20482;-75
2022/11/02 01:38:18;;;;;;;13.30;4.37;;;9.20;99.90;;;;;;5111243;28;20450;-74
2022/11/02 01:40:45;;;;;;;12.13;3.80;;;9.20;99.90;;;;;;5134047;27;20448;-74
2022/11/02 01:43:27;;;;;;;9.70;3.90;;;9.20;99.90;;;;;;5134783;27;20469;-74
2022/11/02 01:45:59;;;;;;;11.80;4.03;;;9.10;99.90;;;;;;5132085;27;20453;-75
2022/11/02 01:48:30;;;;;;;13.07;3.87;;;9.20;99.90;;;;;;5119437;27;20454;-75
2022/11/02 01:50:58;;;;;;;11.43;4.50;;;9.20;99.90;;;;;;5142519;27;20448;-75
2022/11/02 01:53:25;;;;;;;7.00;4.00;;;9.10;99.90;;;;;;5152145;27;20453;-74
2022/11/02 01:55:51;;;;;;;28.33;4.87;;;9.10;99.90;;;;;;5143387;27;20997;-75
2022/11/02 01:58:18;;;;;;;16.50;6.60;;;9.10;99.90;;;;;;5117936;27;20455;-75
2022/11/02 02:00:45;;;;;;;10.90;4.50;;;9.10;99.90;;;;;;5114340;28;20942;-75
2022/11/02 02:03:17;;;;;;;16.47;4.73;;;9.10;99.90;;;;;;5114845;28;20464;-75
2022/11/02 02:05:47;;;;;;;19.67;4.43;;;9.00;99.90;;;;;;5125125;27;20546;-75
2022/11/02 02:08:18;;;;;;;13.83;4.87;;;9.00;99.90;;;;;;5121943;27;20454;-75
2022/11/02 02:10:45;;;;;;;10.73;4.03;;;9.00;99.90;;;;;;5132718;27;20537;-74
2022/11/02 02:13:12;;;;;;;9.03;5.13;;;9.00;99.90;;;;;;5126638;27;20500;-74
2022/11/02 02:15:45;;;;;;;19.23;5.63;;;9.00;99.90;;;;;;5114260;28;20793;-74
2022/11/02 02:18:19;;;;;;;15.40;4.30;;;9.00;99.90;;;;;;5143704;27;20964;-74
2022/11/02 02:21:03;;;;;;;9.13;4.33;;;9.10;99.90;;;;;;5155300;27;20458;-73
2022/11/02 02:24:07;;;;;;;12.80;4.40;;;9.10;99.90;;;;;;5134876;27;20834;-74
2022/11/02 02:26:55;;;;;;;13.10;5.20;;;9.10;99.90;;;;;;5060980;28;20452;-74
2022/11/02 02:29:26;;;;;;;12.47;4.53;;;9.10;99.90;;;;;;5131891;27;20489;-74
2022/11/02 02:31:58;;;;;;;15.33;4.70;;;9.00;99.90;;;;;;5134431;27;20504;-73
2022/11/02 02:34:31;;;;;;;9.13;4.73;;;9.00;99.90;;;;;;5140016;27;20959;-74
2022/11/02 02:37:01;;;;;;;15.40;4.70;;;9.00;99.90;;;;;;5118167;27;20481;-74
2022/11/02 02:39:34;;;;;;;14.07;4.90;;;9.00;99.90;;;;;;5134554;27;20453;-73
2022/11/02 02:42:07;;;;;;;10.97;5.07;;;9.00;99.90;;;;;;5139970;27;20489;-74
2022/11/02 02:44:37;;;;;;;16.03;4.50;;;9.00;99.90;;;;;;5141515;27;20458;-74
2022/11/02 02:47:08;;;;;;;20.07;4.80;;;8.90;99.90;;;;;;5114943;27;20446;-74
2022/11/02 02:49:38;;;;;;;18.63;5.23;;;8.90;99.90;;;;;;5113893;28;20442;-74
2022/11/02 02:52:07;;;;;;;17.90;5.37;;;8.80;99.90;;;;;;5128653;27;20446;-75
2022/11/02 02:54:37;;;;;;;12.80;4.93;;;8.80;99.90;;;;;;5133705;27;20506;-73
2022/11/02 02:57:09;;;;;;;12.17;4.87;;;8.70;99.90;;;;;;5133575;27;20492;-74
2022/11/02 02:59:40;;;;;;;21.10;6.00;;;8.70;99.90;;;;;;5131539;27;20455;-74
2022/11/02 03:02:10;;;;;;;13.50;4.57;;;8.70;99.90;;;;;;5113872;27;21069;-74
2022/11/02 03:04:37;;;;;;;13.47;5.13;;;8.70;99.90;;;;;;5138824;27;20463;-74
2022/11/02 03:07:04;;;;;;;12.03;4.90;;;8.70;99.90;;;;;;5128672;27;20953;-74
2022/11/02 03:09:36;;;;;;;11.70;5.20;;;8.70;99.90;;;;;;5134223;27;20445;-74
2022/11/02 03:12:14;;;;;;;18.53;4.63;;;8.80;99.90;;;;;;5133754;27;20450;-74
2022/11/02 03:14:54;;;;;;;10.10;4.70;;;8.80;99.90;;;;;;5140446;27;20465;-73
2022/11/02 03:17:28;;;;;;;16.27;4.63;;;8.90;99.90;;;;;;5132839;27;20477;-74
2022/11/02 03:20:00;;;;;;;14.40;3.93;;;8.90;99.90;;;;;;5133995;27;20445;-74
2022/11/02 03:22:33;;;;;;;14.43;4.50;;;9.00;99.90;;;;;;5133224;27;21068;-74
2022/11/02 03:25:10;;;;;;;9.83;4.10;;;9.00;99.90;;;;;;5138915;27;20450;-74
2022/11/02 03:27:44;;;;;;;10.77;4.20;;;9.00;99.90;;;;;;5115508;27;20450;-74
2022/11/02 03:30:15;;;;;;;19.67;5.03;;;9.10;99.90;;;;;;5113055;28;20447;-74
2022/11/02 03:32:50;;;;;;;14.90;6.00;;;9.10;99.90;;;;;;5112508;28;21004;-74
2022/11/02 03:35:21;;;;;;;16.03;4.40;;;9.20;99.90;;;;;;5128733;27;20450;-74
2022/11/02 03:37:52;;;;;;;8.93;3.67;;;9.30;99.90;;;;;;5112617;28;20482;-74
2022/11/02 03:40:23;;;;;;;14.70;4.20;;;9.30;99.90;;;;;;5145506;27;20448;-74
2022/11/02 03:42:52;;;;;;;12.23;6.03;;;9.30;99.90;;;;;;5117037;27;20473;-74
2022/11/02 03:45:23;;;;;;;11.80;4.27;;;9.30;99.90;;;;;;5126867;27;20457;-74
2022/11/02 03:47:55;;;;;;;19.50;4.50;;;9.30;99.90;;;;;;5134244;27;20449;-74
2022/11/02 03:50:23;;;;;;;12.03;3.90;;;9.30;99.90;;;;;;5133151;27;20450;-74
2022/11/02 03:52:56;;;;;;;16.93;4.37;;;9.30;99.90;;;;;;5133082;27;20833;-74
2022/11/02 03:55:28;;;;;;;14.03;4.67;;;9.40;99.90;;;;;;5132095;27;20441;-74
2022/11/02 03:57:55;;;;;;;8.63;4.47;;;9.40;99.90;;;;;;5115674;27;21013;-73
2022/11/02 04:00:24;;;;;;;11.17;3.70;;;9.40;99.90;;;;;;5134227;27;20449;-74
2022/11/02 04:02:54;;;;;;;21.63;4.07;;;9.40;99.90;;;;;;5132371;27;20870;-74
2022/11/02 04:05:26;;;;;;;16.73;4.83;;;9.40;99.90;;;;;;5133363;27;20470;-74
2022/11/02 04:14:36;;;;;;;20.33;3.50;;;9.60;99.90;;;;;;5132757;27;20518;-74
2022/11/02 04:16:11;;;;;;;5.47;2.97;;;9.90;99.90;;;;;;5113183;27;20953;-74
2022/11/02 04:21:22;;;;;;;15.37;3.00;;;10.10;99.90;;;;;;5112056;28;20803;-74
2022/11/02 04:26:33;;;;;;;9.13;3.47;;;10.30;99.90;;;;;;5119329;27;20519;-73
2022/11/02 04:29:00;;;;;;;14.10;3.50;;;10.30;99.90;;;;;;5131263;27;20453;-72
2022/11/02 04:31:28;;;;;;;9.50;2.90;;;10.40;99.90;;;;;;5152697;27;20862;-73
2022/11/02 04:33:54;;;;;;;12.03;3.23;;;10.50;99.90;;;;;;5138596;27;20814;-74
2022/11/02 04:36:21;;;;;;;10.47;3.57;;;10.60;99.90;;;;;;5124222;27;20445;-74
2022/11/02 04:38:47;;;;;;;12.03;3.60;;;10.60;99.90;;;;;;5128503;27;20454;-74
2022/11/02 04:44:08;;;;;;;9.40;4.40;;;10.60;99.90;;;;;;5096020;27;20211;-73
2022/11/02 04:46:37;;;;;;;12.70;4.20;;;10.50;99.90;;;;;;5124000;27;20950;-74
2022/11/02 04:49:04;;;;;;;12.07;4.50;;;10.30;99.90;;;;;;5117189;27;20812;-74
2022/11/02 04:51:31;;;;;;;16.80;4.53;;;10.20;99.90;;;;;;5131537;28;20442;-73
2022/11/02 04:53:58;;;;;;;9.43;3.90;;;10.00;99.90;;;;;;5132286;27;20473;-73
2022/11/02 04:56:26;;;;;;;13.27;4.40;;;9.80;99.90;;;;;;5126638;27;20443;-74
2022/11/02 04:58:54;;;;;;;8.63;4.47;;;9.70;99.90;;;;;;5129638;27;20451;-73
2022/11/02 05:01:23;;;;;;;11.37;3.90;;;9.60;99.90;;;;;;5117405;27;20865;-73
2022/11/02 05:03:53;;;;;;;19.70;4.47;;;9.50;99.90;;;;;;5114145;27;20496;-73
2022/11/02 05:06:21;;;;;;;13.07;4.53;;;9.40;99.90;;;;;;5134136;27;20438;-74
2022/11/02 05:08:48;;;;;;;14.37;4.27;;;9.40;99.90;;;;;;5140456;27;20568;-73
2022/11/02 05:11:14;;;;;;;12.50;4.23;;;9.40;99.90;;;;;;5142697;27;20446;-74
2022/11/02 05:13:43;;;;;;;12.33;4.33;;;9.30;99.90;;;;;;5132151;27;20473;-73
2022/11/02 05:16:11;;;;;;;8.13;4.43;;;9.30;99.90;;;;;;5115609;27;20453;-73
2022/11/02 05:18:38;;;;;;;10.90;4.70;;;9.20;99.90;;;;;;5116233;27;21021;-73
2022/11/02 05:21:06;;;;;;;14.87;5.03;;;9.10;99.90;;;;;;5126088;27;20454;-73
2022/11/02 05:23:33;;;;;;;10.47;4.23;;;9.10;99.90;;;;;;5126488;27;20473;-73
2022/11/02 05:26:02;;;;;;;9.30;4.77;;;9.00;99.90;;;;;;5126024;27;20721;-73
2022/11/02 05:28:29;;;;;;;12.87;5.03;;;9.00;99.90;;;;;;5121858;27;20847;-74
2022/11/02 05:30:59;;;;;;;12.53;4.10;;;8.90;99.90;;;;;;5135565;27;20457;-74
2022/11/02 05:33:27;;;;;;;10.70;4.47;;;8.90;99.90;;;;;;5135476;27;20984;-74
2022/11/02 05:35:54;;;;;;;12.03;4.07;;;8.80;99.90;;;;;;5142509;27;20452;-73
2022/11/02 05:38:22;;;;;;;7.33;3.93;;;8.80;99.90;;;;;;5135663;27;20534;-73
2022/11/02 05:40:52;;;;;;;11.13;4.50;;;8.80;99.90;;;;;;5121515;27;20449;-74
2022/11/02 05:43:18;;;;;;;10.33;4.73;;;8.80;99.90;;;;;;5134197;27;20473;-74
2022/11/02 05:45:50;;;;;;;12.90;4.40;;;8.70;99.90;;;;;;5141451;27;20811;-73
2022/11/02 05:48:17;;;;;;;13.20;4.17;;;8.70;99.90;;;;;;5120117;27;20445;-73
2022/11/02 05:50:44;;;;;;;11.70;5.00;;;8.60;99.90;;;;;;5133436;27;20450;-73
2022/11/02 05:53:10;;;;;;;15.30;4.30;;;8.60;99.90;;;;;;5137777;27;20491;-74
2022/11/02 05:55:38;;;;;;;17.53;5.20;;;8.60;99.90;;;;;;5126443;27;20765;-74
2022/11/02 05:58:05;;;;;;;17.50;4.20;;;8.60;99.90;;;;;;5121743;27;20480;-74
2022/11/02 06:00:32;;;;;;;12.07;3.60;;;8.50;99.90;;;;;;5135461;27;20441;-73
2022/11/02 06:02:59;;;;;;;11.60;4.10;;;8.50;99.90;;;;;;5127571;27;21039;-74
2022/11/02 06:05:26;;;;;;;20.47;4.10;;;8.50;99.90;;;;;;5124678;27;20450;-74
2022/11/02 06:07:53;;;;;;;12.60;4.03;;;8.50;99.90;;;;;;5114313;27;20454;-73
2022/11/02 06:10:19;;;;;;;14.20;4.70;;;8.50;99.90;;;;;;5141898;27;20457;-74
2022/11/02 06:12:53;;;;;;;10.30;4.40;;;8.50;99.90;;;;;;5128113;27;20475;-75
2022/11/02 06:15:20;;;;;;;13.00;4.40;;;8.50;99.90;;;;;;5129744;27;20941;-74
2022/11/02 06:17:46;;;;;;;13.50;4.33;;;8.50;99.90;;;;;;5114103;28;20969;-75
2022/11/02 06:20:14;;;;;;;11.70;4.93;;;8.50;99.90;;;;;;5132707;27;20794;-74
2022/11/02 06:22:41;;;;;;;18.37;5.23;;;8.50;99.90;;;;;;5129014;27;20473;-74
2022/11/02 06:25:09;;;;;;;17.13;4.80;;;8.50;99.90;;;;;;5126652;27;20457;-73
2022/11/02 06:27:36;;;;;;;14.47;4.57;;;8.50;99.90;;;;;;5113447;28;20930;-74
2022/11/02 06:30:05;;;;;;;14.23;4.20;;;8.50;99.90;;;;;;5114190;28;20476;-74
2022/11/02 06:32:32;;;;;;;13.60;4.10;;;8.50;99.90;;;;;;5123029;27;20477;-74
2022/11/02 06:34:59;;;;;;;11.00;3.97;;;8.50;99.90;;;;;;5129680;27;20450;-73
2022/11/02 06:37:25;;;;;;;9.63;4.27;;;8.50;99.90;;;;;;5133477;27;20477;-74
2022/11/02 06:39:52;;;;;;;14.70;4.30;;;8.60;99.90;;;;;;5122601;27;20453;-73
2022/11/02 06:42:19;;;;;;;19.87;4.70;;;8.70;99.90;;;;;;5134305;27;20461;-75
2022/11/02 06:44:45;;;;;;;14.60;4.30;;;8.90;99.90;;;;;;5134178;27;20446;-73
2022/11/02 06:47:13;;;;;;;18.73;4.60;;;9.00;99.90;;;;;;5133882;27;20448;-74
2022/11/02 06:49:40;;;;;;;14.57;3.90;;;9.00;99.90;;;;;;5134365;27;20446;-74
2022/11/02 06:52:07;;;;;;;19.80;4.27;;;9.00;99.90;;;;;;5133613;27;22168;-74
2022/11/02 06:54:33;;;;;;;17.50;5.60;;;8.90;99.90;;;;;;5127141;27;20454;-74
2022/11/02 06:57:00;;;;;;;18.93;5.10;;;9.00;99.90;;;;;;5114649;27;20457;-74
2022/11/02 06:59:27;;;;;;;13.67;4.80;;;8.90;99.90;;;;;;5113696;28;20442;-74
2022/11/02 07:01:53;;;;;;;10.90;4.33;;;8.90;99.90;;;;;;5113132;28;20446;-76
2022/11/02 07:04:22;;;;;;;19.17;5.20;;;8.90;99.90;;;;;;5113330;28;20450;-75
2022/11/02 07:06:49;;;;;;;18.13;4.80;;;8.90;99.90;;;;;;5131966;27;20473;-75
2022/11/02 07:09:15;;;;;;;11.67;4.53;;;8.90;99.90;;;;;;5134088;27;20448;-74
2022/11/02 07:11:42;;;;;;;22.13;4.93;;;9.00;99.90;;;;;;5133434;27;20494;-75
2022/11/02 07:14:09;;;;;;;10.67;5.40;;;9.30;99.90;;;;;;5121055;27;20678;-75
2022/11/02 07:16:35;;;;;;;12.83;5.07;;;9.40;99.90;;;;;;5121473;27;20454;-76
2022/11/02 07:19:03;;;;;;;9.03;4.17;;;9.40;99.90;;;;;;5112523;28;20490;-75
2022/11/02 07:21:31;;;;;;;10.33;4.30;;;9.90;99.90;;;;;;5112395;28;20442;-74
2022/11/02 07:23:57;;;;;;;9.80;4.20;;;11.00;99.90;;;;;;5112185;28;20836;-75
2022/11/02 07:26:25;;;;;;;11.90;4.00;;;12.10;99.90;;;;;;5112341;28;20450;-77
2022/11/02 07:28:52;;;;;;;13.60;5.00;;;13.00;99.90;;;;;;5112130;28;20575;-75
2022/11/02 07:31:18;;;;;;;12.73;4.00;;;13.80;99.90;;;;;;5112193;28;20457;-75
2022/11/02 07:33:45;;;;;;;11.30;4.20;;;14.30;99.90;;;;;;5114678;27;20474;-74
2022/11/02 07:36:12;;;;;;;15.17;4.20;;;14.80;99.90;;;;;;5120656;27;20450;-75
2022/11/02 07:38:40;;;;;;;12.73;4.53;;;15.20;99.90;;;;;;5131906;27;20520;-74
2022/11/02 07:41:07;;;;;;;8.43;3.83;;;15.80;99.90;;;;;;5129688;27;20553;-74
2022/11/02 07:43:34;;;;;;;10.80;3.90;;;16.30;99.90;;;;;;5112117;28;20466;-74
2022/11/02 07:46:02;;;;;;;11.43;4.57;;;16.60;99.90;;;;;;5111925;28;20446;-73
2022/11/02 07:48:28;;;;;;;9.37;4.20;;;16.70;99.90;;;;;;5112058;28;20444;-73
2022/11/02 07:50:58;;;;;;;9.50;4.03;;;17.00;99.90;;;;;;5111708;28;20824;-74
2022/11/02 07:53:24;;;;;;;10.27;4.53;;;17.30;99.90;;;;;;5126097;27;20501;-74
2022/11/02 07:55:53;;;;;;;15.60;4.30;;;17.50;99.90;;;;;;5127250;27;21011;-74
2022/11/02 07:58:19;;;;;;;10.73;4.40;;;17.30;99.90;;;;;;5111442;28;20478;-73
2022/11/02 08:00:46;;;;;;;11.67;3.90;;;16.90;99.90;;;;;;5111520;28;20457;-74
2022/11/02 08:03:13;;;;;;;11.50;4.17;;;16.50;99.90;;;;;;5111709;28;20462;-73
2022/11/02 08:05:41;;;;;;;14.03;5.07;;;16.00;99.90;;;;;;5117957;27;20450;-74
2022/11/02 08:08:11;;;;;;;18.50;4.33;;;15.40;99.90;;;;;;5124183;27;20446;-74
2022/11/02 08:10:38;;;;;;;11.57;4.30;;;14.90;99.90;;;;;;5130652;27;20453;-74
2022/11/02 08:13:06;;;;;;;11.70;4.13;;;14.10;99.90;;;;;;5132067;27;20526;-74
2022/11/02 08:15:33;;;;;;;10.83;4.17;;;13.20;99.90;;;;;;5130121;27;20442;-76
2022/11/02 08:18:01;;;;;;;7.20;4.10;;;12.50;99.90;;;;;;5111451;28;20479;-77
2022/11/02 08:20:28;;;;;;;13.03;4.50;;;12.10;99.90;;;;;;5115140;27;21031;-77
2022/11/02 08:22:54;;;;;;;10.40;4.40;;;12.00;99.90;;;;;;5131666;27;20465;-77
2022/11/02 08:25:21;;;;;;;13.10;4.03;;;11.90;99.90;;;;;;5132071;27;20449;-76
2022/11/02 08:27:48;;;;;;;8.00;2.87;;;12.10;99.90;;;;;;5131522;27;20509;-74
2022/11/02 08:30:16;;;;;;;11.60;3.53;;;12.50;99.90;;;;;;5131869;27;20452;-74
2022/11/02 08:32:43;;;;;;;6.23;2.47;;;13.00;99.90;;;;;;5131383;27;20473;-73
2022/11/02 08:35:09;;;;;;;11.50;3.60;;;13.40;99.90;;;;;;5131574;27;20464;-75
2022/11/02 08:37:36;;;;;;;9.33;2.97;;;13.80;99.90;;;;;;5131119;28;20481;-73
2022/11/02 08:40:03;;;;;;;7.70;3.20;;;14.10;99.90;;;;;;5131824;28;20452;-73
2022/11/02 08:42:30;;;;;;;11.20;2.90;;;14.50;99.90;;;;;;5131676;28;20481;-73
2022/11/02 08:44:57;;;;;;;11.03;3.03;;;14.70;99.90;;;;;;5131695;28;20445;-73
2022/11/02 08:47:25;;;;;;;6.67;2.80;;;14.80;99.90;;;;;;5129940;28;20457;-74
2022/11/02 08:49:51;;;;;;;10.23;3.00;;;14.80;99.90;;;;;;5133921;27;20442;-74
2022/11/02 08:52:18;;;;;;;9.13;2.47;;;15.00;99.90;;;;;;5134870;27;20949;-74
2022/11/02 08:54:45;;;;;;;8.60;2.40;;;15.20;99.90;;;;;;5135910;27;20441;-74
2022/11/02 08:57:11;;;;;;;9.57;2.87;;;15.30;99.90;;;;;;5122146;27;20962;-74
2022/11/02 08:59:38;;;;;;;8.63;2.80;;;15.50;99.90;;;;;;5115120;28;20483;-74
2022/11/02 09:02:05;;;;;;;9.13;3.20;;;15.60;99.90;;;;;;5114997;28;20470;-74
2022/11/02 09:04:33;;;;;;;13.03;2.77;;;15.70;99.90;;;;;;5114845;28;20421;-74
2022/11/02 09:06:59;;;;;;;11.40;3.03;;;15.50;99.90;;;;;;5127414;27;20446;-75
2022/11/02 09:09:26;;;;;;;7.70;3.03;;;15.50;99.90;;;;;;5135651;27;20834;-75
2022/11/02 09:11:53;;;;;;;9.70;2.57;;;15.60;99.90;;;;;;5135062;27;20420;-75
2022/11/02 09:14:19;;;;;;;8.30;2.60;;;15.70;99.90;;;;;;5130824;27;20449;-75
2022/11/02 09:16:46;;;;;;;15.37;3.50;;;15.40;99.90;;;;;;5114795;28;20921;-77
2022/11/02 09:19:13;;;;;;;8.50;2.77;;;15.50;99.90;;;;;;5115005;28;20855;-76
2022/11/02 09:21:41;;;;;;;9.60;2.63;;;15.80;99.90;;;;;;5114418;28;20826;-77
2022/11/02 09:24:08;;;;;;;12.23;2.53;;;15.90;99.90;;;;;;5114708;28;20903;-75
2022/11/02 09:26:35;;;;;;;11.60;2.87;;;15.80;99.90;;;;;;5115883;27;20450;-75
2022/11/02 09:29:02;;;;;;;8.23;2.50;;;15.80;99.90;;;;;;5114379;28;20454;-73
2022/11/02 09:31:29;;;;;;;7.37;2.53;;;15.80;99.90;;;;;;5114496;27;20417;-74
2022/11/02 09:33:55;;;;;;;13.40;2.37;;;16.00;99.90;;;;;;5119549;27;22520;-75
2022/11/02 09:36:22;;;;;;;5.83;2.70;;;16.30;99.90;;;;;;5122249;27;20993;-74
2022/11/02 09:38:50;;;;;;;6.80;2.33;;;15.90;99.90;;;;;;5114575;28;20573;-74
2022/11/02 09:41:22;;;;;;;11.17;2.87;;;15.90;99.90;;;;;;5114017;27;20477;-75
2022/11/02 09:43:58;;;;;;;5.93;2.37;;;15.90;99.90;;;;;;5134370;27;20452;-74
2022/11/02 09:46:27;;;;;;;9.57;2.03;;;16.10;99.90;;;;;;5132958;27;20427;-74
2022/11/02 09:48:57;;;;;;;7.97;2.10;;;16.40;99.90;;;;;;5135057;27;20415;-74
2022/11/02 09:51:27;;;;;;;4.60;2.43;;;16.40;99.90;;;;;;5134543;27;20445;-75
2022/11/02 09:54:02;;;;;;;11.87;2.63;;;16.20;99.90;;;;;;5134534;27;20440;-74
2022/11/02 09:56:30;;;;;;;9.03;2.27;;;16.20;99.90;;;;;;5127990;27;20531;-75
2022/11/02 09:59:02;;;;;;;5.60;2.40;;;16.50;99.90;;;;;;5114192;27;20518;-74
2022/11/02 10:01:42;;;;;;;5.97;2.73;;;16.90;99.90;;;;;;5113129;28;20421;-75
2022/11/02 10:04:41;;;;;;;9.73;2.20;;;16.90;99.90;;;;;;5114087;28;20466;-75
2022/11/02 10:07:16;;;;;;;9.80;2.47;;;16.20;99.90;;;;;;5124714;27;20660;-75
2022/11/02 10:09:53;;;;;;;5.47;2.10;;;16.20;99.90;;;;;;5134724;27;20416;-74
2022/11/02 10:12:24;;;;;;;8.40;2.30;;;16.50;99.90;;;;;;5133555;27;20518;-74
2022/11/02 10:14:59;;;;;;;12.83;2.40;;;16.40;99.90;;;;;;5133851;27;20421;-74
2022/11/02 10:17:29;;;;;;;6.00;2.60;;;16.50;99.90;;;;;;5134762;27;20488;-75
2022/11/02 10:19:57;;;;;;;10.97;2.30;;;16.80;99.90;;;;;;5134888;27;20492;-74
2022/11/02 10:22:28;;;;;;;6.40;2.40;;;16.60;99.90;;;;;;5134498;27;20435;-75
2022/11/02 10:24:58;;;;;;;7.70;2.20;;;16.60;99.90;;;;;;5134714;27;20437;-75
2022/11/02 10:27:27;;;;;;;9.03;2.53;;;16.40;99.90;;;;;;5132026;27;20424;-76
2022/11/02 10:29:58;;;;;;;7.33;2.20;;;16.00;99.90;;;;;;5134926;27;20504;-75
2022/11/02 10:32:25;;;;;;;7.67;2.70;;;16.10;99.90;;;;;;5134244;27;20570;-75
2022/11/02 10:34:53;;;;;;;14.87;2.50;;;16.20;99.90;;;;;;5134627;27;20860;-75
2022/11/02 10:37:33;;;;;;;11.70;2.77;;;16.00;99.90;;;;;;5121010;27;20496;-75
2022/11/02 10:40:15;;;;;;;8.43;2.30;;;15.80;99.90;;;;;;5114156;28;20457;-75
2022/11/02 10:42:56;;;;;;;12.23;2.37;;;15.60;99.90;;;;;;5124357;27;20544;-75
2022/11/02 10:45:46;;;;;;;9.30;2.27;;;15.40;99.90;;;;;;5134604;27;20435;-75
2022/11/02 10:48:26;;;;;;;6.77;2.63;;;15.10;99.90;;;;;;5127444;27;20420;-75
2022/11/02 10:51:01;;;;;;;12.60;2.60;;;14.90;99.90;;;;;;5133741;27;20449;-75
2022/11/02 10:53:33;;;;;;;10.33;2.93;;;14.90;99.90;;;;;;5128022;27;20471;-75
2022/11/02 10:56:07;;;;;;;7.17;2.20;;;15.00;99.90;;;;;;5132852;27;20424;-76
2022/11/02 10:58:39;;;;;;;6.07;2.60;;;15.50;99.90;;;;;;5113861;28;20501;-74
2022/11/02 11:01:07;;;;;;;3.90;2.57;;;15.80;99.90;;;;;;5113387;28;20492;-75
2022/11/02 11:03:34;;;;;;;7.70;2.27;;;15.80;99.90;;;;;;5113488;28;20466;-75
2022/11/02 11:06:04;;;;;;;8.90;2.80;;;15.50;99.90;;;;;;5120739;27;20417;-75
2022/11/02 11:08:36;;;;;;;7.90;2.20;;;15.40;99.90;;;;;;5113050;28;20451;-75
2022/11/02 11:11:13;;;;;;;5.37;2.27;;;15.50;99.90;;;;;;5114022;27;20447;-75
2022/11/02 11:13:42;;;;;;;7.63;2.60;;;15.60;99.90;;;;;;5123019;27;20469;-73
2022/11/02 11:16:09;;;;;;;7.93;2.43;;;15.50;99.90;;;;;;5125985;27;20458;-75
2022/11/02 11:18:37;;;;;;;11.97;2.70;;;15.50;99.90;;;;;;5113052;28;20500;-73
2022/11/02 11:21:05;;;;;;;11.60;2.33;;;15.40;99.90;;;;;;5119343;27;20816;-76
2022/11/02 11:23:32;;;;;;;11.40;2.80;;;15.40;99.90;;;;;;5133373;27;20526;-74
2022/11/02 11:26:01;;;;;;;6.80;2.20;;;15.60;99.90;;;;;;5132932;27;20453;-74
2022/11/02 11:28:32;;;;;;;5.40;2.00;;;15.80;99.90;;;;;;5133414;27;20451;-74
2022/11/02 11:31:06;;;;;;;10.37;2.37;;;16.20;99.90;;;;;;5133395;27;20408;-74
2022/11/02 11:33:41;;;;;;;5.77;2.10;;;16.30;99.90;;;;;;5132880;27;20477;-74
2022/11/02 11:36:09;;;;;;;14.37;2.50;;;16.30;99.90;;;;;;5128885;27;20436;-75
2022/11/02 11:38:36;;;;;;;4.73;2.00;;;16.30;99.90;;;;;;5133334;27;20452;-74
2022/11/02 11:41:04;;;;;;;12.80;2.30;;;16.20;99.90;;;;;;5133226;27;20447;-74
2022/11/02 11:43:37;;;;;;;2.93;1.87;;;16.10;99.90;;;;;;5131335;27;20870;-75
2022/11/02 11:46:06;;;;;;;10.33;2.50;;;16.00;99.90;;;;;;5132822;27;20416;-74
2022/11/02 11:48:37;;;;;;;8.37;2.30;;;16.00;99.90;;;;;;5113895;27;20843;-74
2022/11/02 11:51:18;;;;;;;9.70;2.40;;;15.90;99.90;;;;;;5126775;27;20453;-74
2022/11/02 11:54:05;;;;;;;10.40;2.30;;;16.10;99.90;;;;;;5122817;27;20809;-74
2022/11/02 11:56:32;;;;;;;8.93;2.17;;;16.30;99.90;;;;;;5131803;27;20445;-74
2022/11/02 11:59:00;;;;;;;8.67;2.20;;;16.40;99.90;;;;;;5132936;27;20452;-74
2022/11/02 12:01:37;;;;;;;10.17;2.70;;;16.30;99.90;;;;;;5132979;27;20453;-74
2022/11/02 12:04:04;;;;;;;7.00;2.10;;;16.50;99.90;;;;;;5132769;27;20451;-74
2022/11/02 12:06:42;;;;;;;8.50;3.17;;;16.40;99.90;;;;;;5123573;27;20442;-75
2022/11/02 12:09:16;;;;;;;9.30;3.10;;;15.90;99.90;;;;;;5112030;28;20937;-75
2022/11/02 12:11:52;;;;;;;11.37;2.47;;;15.60;99.90;;;;;;5125797;27;20445;-75
2022/11/02 12:14:44;;;;;;;10.20;2.47;;;15.30;99.90;;;;;;5132846;27;20445;-75
2022/11/02 12:17:25;;;;;;;10.27;2.97;;;15.20;99.90;;;;;;5123535;27;20458;-74
2022/11/02 12:20:12;;;;;;;8.30;2.00;;;15.20;99.90;;;;;;5111982;28;20489;-75
2022/11/02 12:22:48;;;;;;;10.17;2.50;;;15.10;99.90;;;;;;5111971;28;20466;-74
2022/11/02 12:25:37;;;;;;;7.23;2.57;;;14.90;99.90;;;;;;5112879;27;20479;-73
2022/11/02 12:28:22;;;;;;;11.83;2.40;;;14.80;99.90;;;;;;5131558;27;20457;-74
2022/11/02 12:30:59;;;;;;;3.97;2.03;;;14.80;99.90;;;;;;5132465;27;20445;-74
2022/11/02 12:33:43;;;;;;;7.67;2.27;;;14.70;99.90;;;;;;5131773;27;20988;-75
2022/11/02 12:36:28;;;;;;;5.87;1.90;;;14.60;99.90;;;;;;5111916;28;20430;-74
2022/11/02 12:39:05;;;;;;;6.43;2.20;;;14.60;99.90;;;;;;5120246;28;20992;-74
2022/11/02 12:41:55;;;;;;;8.07;2.70;;;14.50;99.90;;;;;;5132256;28;20453;-78
2022/11/02 12:44:43;;;;;;;7.33;2.80;;;14.70;99.90;;;;;;5132747;28;20520;-74
2022/11/02 12:47:25;;;;;;;4.33;2.43;;;14.90;99.90;;;;;;5122430;28;20519;-76
2022/11/02 12:50:03;;;;;;;14.47;2.57;;;15.00;99.90;;;;;;5111845;28;20442;-77
2022/11/02 12:52:44;;;;;;;7.07;2.13;;;15.00;99.90;;;;;;5111445;28;20489;-78
2022/11/02 12:55:16;;;;;;;7.33;2.77;;;15.20;99.90;;;;;;5126980;28;20461;-77
2022/11/02 12:57:43;;;;;;;18.57;3.00;;;15.80;99.90;;;;;;5111426;28;20457;-79
2022/11/02 13:00:18;;;;;;;9.37;2.20;;;16.40;99.90;;;;;;5110861;28;20482;-77
2022/11/02 13:02:55;;;;;;;7.10;2.30;;;16.90;99.90;;;;;;5111308;28;20478;-77
2022/11/02 13:05:25;;;;;;;6.07;1.80;;;17.30;99.90;;;;;;5111126;28;20474;-77
2022/11/02 13:08:01;;;;;;;11.13;2.10;;;17.50;99.90;;;;;;5115243;28;20438;-75
2022/11/02 13:10:32;;;;;;;8.67;2.20;;;17.50;99.90;;;;;;5120733;28;20424;-74
2022/11/02 13:13:03;;;;;;;11.23;2.27;;;17.50;99.90;;;;;;5131520;28;20469;-74
2022/11/02 13:15:34;;;;;;;8.60;2.30;;;17.60;99.90;;;;;;5131230;28;20792;-73